Terminal Aerodrome Forecast
Issued by NWS

Home | Current Version | Previous Version | Text Only | Print | Product List | Glossary On
Versions: 1 2 3 4 5 6 7 8 9 10 11 12
647
FTUS46 KPDT 291120
TAFYKM
TAF
KYKM 291120Z 2912/3012 26006KT P6SM SCT250
     FM291800 13005KT P6SM SCT100 BKN180
     FM292100 20007KT P6SM FEW080 BKN140
     FM300600 23008KT P6SM VCSH FEW050 BKN100
     FM301000 25006KT P6SM FEW200=

USA.gov is the U.S. government's official web portal to all federal, state and local government web resources and services.